createdAt,value
2017-11-16T00:01:36.516Z,49.07
2017-11-16T00:06:40.343Z,51.50
2017-11-16T00:11:42.933Z,47.30
2017-11-16T00:16:45.790Z,55.73
2017-11-16T00:21:48.400Z,55.93
2017-11-16T00:26:51.082Z,55.73
2017-11-16T00:31:53.695Z,56.07
2017-11-16T00:36:57.106Z,52.77
2017-11-16T00:41:59.951Z,55.50
2017-11-16T00:47:03.106Z,57.57
2017-11-16T00:52:05.701Z,58.60
2017-11-16T00:57:08.511Z,63.60
2017-11-16T01:02:11.232Z,56.90
2017-11-16T01:07:14.169Z,52.50
2017-11-16T01:12:16.768Z,52.17
2017-11-16T01:17:20.014Z,54.90
2017-11-16T01:22:23.435Z,58.37
2017-11-16T01:27:27.053Z,58.07
2017-11-16T01:32:30.438Z,56.47
2017-11-16T01:37:33.687Z,59.43
2017-11-16T01:42:36.392Z,62.27
2017-11-16T01:47:39.177Z,57.03
2017-11-16T01:52:42.571Z,67.57
2017-11-16T01:57:45.533Z,66.63
2017-11-16T02:02:52.940Z,68.27
2017-11-16T02:07:56.520Z,72.03
2017-11-16T02:12:59.137Z,77.30
2017-11-16T02:18:02.763Z,82.80
2017-11-16T02:23:05.456Z,73.77
2017-11-16T02:28:09.081Z,70.83
2017-11-16T02:33:12.455Z,77.27
2017-11-16T02:38:15.476Z,78.77
2017-11-16T02:43:18.092Z,87.93
2017-11-16T02:48:21.519Z,75.80
2017-11-16T02:53:24.142Z,89.00
2017-11-16T02:58:27.107Z,75.63
2017-11-16T03:03:30.497Z,77.33
2017-11-16T03:08:33.517Z,82.93
2017-11-16T03:13:36.131Z,75.50
2017-11-16T03:18:39.850Z,80.30
2017-11-16T03:23:43.238Z,66.03
2017-11-16T03:28:46.788Z,66.00
2017-11-16T03:33:49.398Z,57.20
2017-11-16T03:38:53.008Z,53.03
2017-11-16T03:43:55.635Z,57.60
2017-11-16T03:48:58.917Z,57.90
2017-11-16T03:54:01.540Z,56.63
2017-11-16T03:59:04.964Z,61.43
2017-11-16T04:04:07.583Z,58.50
2017-11-16T04:09:10.693Z,52.37
2017-11-16T04:14:13.289Z,54.10
2017-11-16T04:19:16.749Z,55.83
2017-11-16T04:24:19.362Z,52.57
2017-11-16T04:29:23.707Z,55.90
2017-11-16T04:34:27.079Z,57.03
2017-11-16T04:39:30.073Z,51.77
2017-11-16T04:44:32.697Z,54.67
2017-11-16T04:49:35.965Z,55.77
2017-11-16T04:54:38.595Z,55.83
2017-11-16T04:59:41.509Z,56.50
2017-11-16T05:04:44.085Z,51.10
2017-11-16T05:09:46.945Z,56.00
2017-11-16T05:14:50.324Z,58.53
2017-11-16T05:19:53.698Z,54.33
2017-11-16T05:24:56.314Z,50.63
2017-11-16T05:29:59.161Z,57.10
2017-11-16T05:35:01.734Z,55.37
2017-11-16T05:40:04.376Z,58.47
2017-11-16T05:45:07.747Z,65.27
2017-11-16T05:50:11.025Z,64.37
2017-11-16T05:55:13.722Z,74.67
2017-11-16T06:00:16.981Z,67.80
2017-11-16T06:05:19.585Z,56.13
2017-11-16T06:10:23.113Z,58.93
2017-11-16T06:15:25.731Z,65.00
2017-11-16T06:20:28.574Z,67.87
2017-11-16T06:25:31.201Z,69.27
2017-11-16T06:30:34.169Z,62.20
2017-11-16T06:35:36.801Z,75.17
2017-11-16T06:40:39.454Z,60.40
2017-11-16T06:45:42.885Z,69.23
2017-11-16T06:50:45.639Z,64.93
2017-11-16T06:55:48.259Z,69.03
2017-11-16T07:00:51.708Z,62.27
2017-11-16T07:05:54.321Z,67.67
2017-11-16T07:10:57.301Z,66.57
2017-11-16T07:15:59.924Z,65.20
2017-11-16T07:21:02.769Z,63.47
2017-11-16T07:26:05.387Z,59.70
2017-11-16T07:31:09.026Z,63.67
2017-11-16T07:36:11.648Z,57.90
2017-11-16T07:41:14.705Z,51.03
2017-11-16T07:46:17.324Z,54.17
2017-11-16T07:51:20.897Z,52.53
2017-11-16T07:56:24.566Z,56.90
2017-11-16T08:01:28.080Z,49.87
2017-11-16T08:06:31.463Z,58.17
2017-11-16T08:11:35.053Z,54.13
2017-11-16T08:16:37.647Z,54.20
2017-11-16T08:21:40.432Z,52.03
2017-11-16T08:26:43.080Z,49.13
2017-11-16T08:31:46.633Z,43.37
2017-11-16T08:36:50.346Z,47.33
2017-11-16T08:41:54.006Z,42.87
2017-11-16T08:46:56.654Z,46.60
2017-11-16T08:51:59.918Z,42.33
2017-11-16T08:57:02.502Z,40.07
2017-11-16T09:02:05.907Z,42.70
2017-11-16T09:07:09.283Z,42.53
2017-11-16T09:12:12.276Z,42.03
2017-11-16T09:17:14.893Z,35.03
2017-11-16T09:22:18.490Z,34.37
2017-11-16T09:27:21.088Z,36.03
2017-11-16T09:32:24.644Z,35.17
2017-11-16T09:37:27.255Z,34.60
2017-11-16T09:42:30.246Z,28.60
2017-11-16T09:47:32.859Z,26.80
2017-11-16T09:52:35.922Z,27.47
2017-11-16T09:57:38.537Z,28.30
2017-11-16T10:02:41.195Z,29.63
2017-11-16T10:07:43.812Z,35.90
2017-11-16T10:12:47.325Z,27.83
2017-11-16T10:17:49.934Z,43.83
2017-11-16T10:22:52.704Z,29.07
2017-11-16T10:27:56.047Z,28.90
2017-11-16T10:32:59.131Z,25.67
2017-11-16T10:38:02.520Z,25.67
2017-11-16T10:43:07.446Z,21.70
2017-11-16T10:48:10.063Z,24.10
2017-11-16T10:53:12.837Z,22.87
2017-11-16T10:58:15.460Z,22.60
2017-11-16T11:03:18.141Z,24.63
2017-11-16T11:08:20.732Z,26.80
2017-11-16T11:13:24.018Z,20.00
2017-11-16T11:18:26.634Z,20.27
2017-11-16T11:23:29.602Z,21.40
2017-11-16T11:28:32.212Z,19.90
2017-11-16T11:33:36.338Z,19.63
2017-11-16T11:38:39.741Z,20.10
2017-11-16T11:43:42.399Z,19.60
2017-11-16T11:48:45.042Z,19.37
2017-11-16T11:53:48.621Z,18.97
2017-11-16T11:58:51.285Z,19.73
2017-11-16T12:03:54.695Z,20.10
2017-11-16T12:08:58.095Z,21.70
2017-11-16T12:14:01.066Z,22.73
2017-11-16T12:19:03.683Z,26.23
2017-11-16T12:24:07.161Z,20.33
2017-11-16T12:29:09.826Z,22.73
2017-11-16T12:34:13.970Z,20.30
2017-11-16T12:39:17.364Z,22.87
2017-11-16T12:44:20.741Z,18.47
2017-11-16T12:49:23.322Z,20.97
2017-11-16T12:54:27.056Z,19.67
2017-11-16T12:59:29.686Z,19.83
2017-11-16T13:04:32.556Z,18.40
2017-11-16T13:09:35.144Z,20.53
2017-11-16T13:14:38.661Z,18.13
2017-11-16T13:19:41.257Z,15.40
2017-11-16T13:24:44.419Z,16.63
2017-11-16T13:29:47.062Z,16.03
2017-11-16T13:34:50.494Z,15.93
2017-11-16T13:39:53.125Z,14.43
2017-11-16T13:44:56.079Z,15.70
2017-11-16T13:49:59.489Z,13.37
2017-11-16T13:55:03.469Z,14.27
2017-11-16T14:00:06.093Z,18.13
2017-11-16T14:05:09.572Z,17.47
2017-11-16T14:10:12.920Z,29.27
2017-11-16T14:15:17.028Z,18.87
2017-11-16T14:20:19.701Z,18.20
2017-11-16T14:25:23.048Z,17.30
2017-11-16T14:30:25.682Z,13.07
2017-11-16T14:35:29.448Z,15.23
2017-11-16T14:40:32.137Z,14.03
2017-11-16T14:45:35.901Z,13.47
2017-11-16T14:50:39.405Z,14.37
2017-11-16T14:55:42.042Z,14.33
2017-11-16T15:00:44.666Z,13.10
2017-11-16T15:05:48.103Z,13.37
2017-11-16T15:10:50.729Z,34.37
2017-11-16T15:15:53.436Z,15.67
2017-11-16T15:20:56.047Z,16.07
2017-11-16T15:25:59.624Z,14.13
2017-11-16T15:31:02.251Z,15.43
2017-11-16T15:36:05.715Z,14.53
2017-11-16T15:41:09.111Z,14.40
2017-11-16T15:46:12.284Z,15.47
2017-11-16T15:51:14.911Z,19.20
2017-11-16T15:56:18.070Z,18.93
2017-11-16T16:01:21.438Z,14.93
2017-11-16T16:06:24.918Z,14.93
2017-11-16T16:11:27.535Z,18.30
2017-11-16T16:16:31.152Z,22.03
2017-11-16T16:21:33.793Z,25.30
2017-11-16T16:26:36.659Z,25.53
2017-11-16T16:31:39.431Z,27.00
2017-11-16T16:36:42.552Z,19.80
2017-11-16T16:41:45.214Z,18.90
2017-11-16T16:46:47.989Z,17.23
2017-11-16T16:51:52.900Z,18.53
2017-11-16T16:56:56.075Z,25.87
2017-11-16T17:02:00.181Z,18.07
2017-11-16T17:07:03.295Z,18.90
2017-11-16T17:12:07.677Z,18.97
2017-11-16T17:17:11.326Z,20.73
2017-11-16T17:22:14.050Z,18.50
2017-11-16T17:27:17.530Z,17.20
2017-11-16T17:32:20.216Z,20.37
2017-11-16T17:37:23.676Z,20.43
2017-11-16T17:42:26.422Z,19.33
2017-11-16T17:47:29.568Z,21.23
2017-11-16T17:52:32.471Z,21.13
2017-11-16T17:57:35.911Z,22.27
2017-11-16T18:02:38.615Z,20.23
2017-11-16T18:07:42.211Z,19.93
2017-11-16T18:12:45.036Z,21.60
2017-11-16T18:17:47.818Z,20.27
2017-11-16T18:22:50.510Z,20.90
2017-11-16T18:27:54.053Z,21.07
2017-11-16T18:32:56.689Z,20.60
2017-11-16T18:38:00.359Z,23.47
2017-11-16T18:43:03.009Z,25.60
2017-11-16T18:48:06.175Z,20.63
2017-11-16T18:53:09.076Z,21.97
2017-11-16T18:58:11.971Z,21.23
2017-11-16T19:03:15.543Z,21.43
2017-11-16T19:08:19.022Z,21.53
2017-11-16T19:13:21.767Z,22.17
2017-11-16T19:18:25.421Z,22.67
2017-11-16T19:23:29.045Z,21.23
2017-11-16T19:28:33.616Z,23.90
2017-11-16T19:33:36.445Z,23.80
2017-11-16T19:38:40.210Z,24.57
2017-11-16T19:43:42.833Z,21.40
2017-11-16T19:48:46.256Z,24.17
2017-11-16T19:53:49.119Z,23.53
2017-11-16T19:58:52.683Z,24.40
2017-11-16T20:03:55.509Z,28.73
2017-11-16T20:08:59.250Z,25.53
2017-11-16T20:14:01.966Z,24.97
2017-11-16T20:19:04.936Z,24.37
2017-11-16T20:24:08.949Z,23.60
2017-11-16T20:29:11.963Z,22.77
2017-11-16T20:34:14.749Z,29.97
2017-11-16T20:39:31.104Z,18.57
2017-11-16T20:44:35.920Z,23.43
2017-11-16T20:49:41.405Z,21.40
2017-11-16T20:54:44.065Z,25.53
2017-11-16T20:59:48.344Z,23.90
2017-11-16T21:04:51.137Z,25.63
2017-11-16T21:09:54.134Z,28.27
2017-11-16T21:14:57.114Z,27.67
2017-11-16T21:20:00.346Z,24.57
2017-11-16T21:25:04.519Z,22.87
2017-11-16T21:30:07.728Z,27.23
2017-11-16T21:35:10.429Z,29.37
2017-11-16T21:40:15.055Z,26.93
2017-11-16T21:45:17.850Z,30.43
2017-11-16T21:50:20.860Z,28.23
2017-11-16T21:55:24.597Z,37.17
2017-11-16T22:00:28.204Z,56.97
2017-11-16T22:05:31.190Z,27.13
2017-11-16T22:10:35.746Z,28.37
2017-11-16T22:15:39.151Z,30.20
2017-11-16T22:20:42.003Z,31.13
2017-11-16T22:25:44.694Z,29.27
2017-11-16T22:30:50.143Z,30.20
2017-11-16T22:35:56.351Z,30.47
2017-11-16T22:40:59.832Z,30.37
2017-11-16T22:46:03.407Z,33.20
2017-11-16T22:51:07.197Z,29.47
2017-11-16T22:56:10.163Z,36.13
2017-11-16T23:01:13.968Z,33.17
2017-11-16T23:06:16.652Z,33.27
2017-11-16T23:11:20.056Z,33.57
2017-11-16T23:16:26.117Z,32.57
2017-11-16T23:21:29.893Z,36.30
2017-11-16T23:26:32.562Z,37.83
2017-11-16T23:31:35.644Z,36.67
2017-11-16T23:36:39.063Z,33.83
2017-11-16T23:41:43.018Z,33.17
2017-11-16T23:46:45.667Z,35.17
2017-11-16T23:51:48.953Z,35.90
2017-11-16T23:56:51.598Z,40.30
